Buenos Aires, Argentina
Current Conditions -  °F | °C
As of 8:00 PM on Friday 28 Nov 2014 (Local Time) from SABE Reporting Station
Clear Clear  
Wind Chill: 81°   Ceiling: Unl
Heat Index: 81°   Visibility: 6mi
Dew Point: 52°   Wind: 21mph
Humidity: 37%   Direction: 30°NNE
Pressure: 29.85"   Gusts: NA
Location:  34.61°S, 58.37°W
Report Text: SABE 282300Z 03018KT CAVOK 27/11 Q1011
Loading
Personal Weather Stations






























Interactive Weather Map New forecast layout! Learn more

10-Day Weather Forecast

Advertisements
Track Severe Weather on mobile